Time;durP1;ratioP1;P1;durP2;ratioP2;P2;SDS_P1;SDS_P2;PMS_P1;PMS_P2;Temp;Humidity;BMP_temperature;BMP_pressure;BME280_temperature;BME280_humidity;BME280_pressure;Samples;Min_cycle;Max_cycle;Signal;HPM_P1;HPM_P2
2022/03/05 00:01:35;;;;;;;29.80;15.70;;;1.20;99.90;;;;;;5084155;27;20118;-81
2022/03/05 00:04:22;;;;;;;32.13;13.80;;;1.20;99.90;;;;;;5075764;27;20043;-83
2022/03/05 00:07:08;;;;;;;28.20;13.67;;;1.20;99.90;;;;;;5066564;28;20043;-83
2022/03/05 00:09:59;;;;;;;31.20;15.23;;;1.10;99.90;;;;;;5036111;28;20035;-84
2022/03/05 00:12:33;;;;;;;25.13;12.77;;;1.10;99.90;;;;;;5053223;28;20028;-83
2022/03/05 00:15:06;;;;;;;31.53;15.30;;;1.00;99.90;;;;;;5071541;27;20063;-83
2022/03/05 00:17:43;;;;;;;30.53;15.53;;;1.00;99.90;;;;;;5073451;28;20042;-83
2022/03/05 00:20:12;;;;;;;27.90;13.40;;;1.00;99.90;;;;;;5102995;27;20020;-82
2022/03/05 00:22:39;;;;;;;30.93;15.07;;;1.00;99.90;;;;;;5053867;28;20038;-83
2022/03/05 00:25:10;;;;;;;26.17;13.57;;;0.90;99.90;;;;;;5083889;28;20435;-82
2022/03/05 00:27:43;;;;;;;29.20;14.27;;;0.90;99.90;;;;;;5087561;27;20031;-83
2022/03/05 00:30:22;;;;;;;22.63;11.77;;;0.80;99.90;;;;;;5083246;28;20047;-83
2022/03/05 00:32:50;;;;;;;27.67;13.57;;;0.80;99.90;;;;;;5069378;28;20048;-81
2022/03/05 00:35:17;;;;;;;32.33;15.90;;;0.70;99.90;;;;;;5066763;28;20044;-83
2022/03/05 00:37:44;;;;;;;26.60;12.93;;;0.70;99.90;;;;;;5084362;27;20486;-83
2022/03/05 00:40:11;;;;;;;29.23;14.97;;;0.70;99.90;;;;;;5050410;28;20035;-79
2022/03/05 00:42:40;;;;;;;27.47;14.07;;;0.70;99.90;;;;;;5054302;28;20044;-83
2022/03/05 00:45:14;;;;;;;32.23;15.13;;;0.70;99.90;;;;;;5096858;27;20044;-83
2022/03/05 00:47:41;;;;;;;33.20;16.87;;;0.70;99.90;;;;;;5052689;28;20043;-83
2022/03/05 00:50:08;;;;;;;29.37;14.47;;;0.60;99.90;;;;;;5083442;28;20032;-82
2022/03/05 00:52:37;;;;;;;28.03;13.20;;;0.60;99.90;;;;;;5102850;27;20042;-83
2022/03/05 00:55:11;;;;;;;31.93;14.63;;;0.60;99.90;;;;;;5054173;28;20035;-82
2022/03/05 00:57:43;;;;;;;35.33;16.20;;;0.50;99.90;;;;;;5052439;27;20059;-82
2022/03/05 01:00:13;;;;;;;;;;;0.50;99.90;;;;;;5051183;28;20043;-81
2022/03/05 01:02:45;;;;;;;31.03;14.77;;;0.40;99.90;;;;;;5071597;27;19915;-82
2022/03/05 01:05:12;;;;;;;29.43;14.30;;;0.40;99.90;;;;;;5055162;27;20043;-82
2022/03/05 01:07:39;;;;;;;27.03;12.43;;;0.40;99.90;;;;;;5070928;27;20023;-81
2022/03/05 01:10:07;;;;;;;25.70;12.90;;;0.40;99.90;;;;;;5081031;28;20039;-82
2022/03/05 01:12:35;;;;;;;30.20;14.83;;;0.30;99.90;;;;;;5049677;28;20431;-82
2022/03/05 01:15:07;;;;;;;31.87;13.53;;;0.30;99.90;;;;;;5048724;28;20044;-82
2022/03/05 01:17:37;;;;;;;23.70;12.10;;;0.30;99.90;;;;;;5047765;28;20044;-82
2022/03/05 01:20:07;;;;;;;28.53;13.40;;;0.20;99.90;;;;;;5050071;28;20051;-81
2022/03/05 01:22:34;;;;;;;32.50;15.40;;;0.20;99.90;;;;;;5045423;27;20046;-74
2022/03/05 01:25:00;;;;;;;29.83;14.10;;;0.20;99.90;;;;;;5074130;28;20407;-75
2022/03/05 01:27:27;;;;;;;27.47;13.90;;;0.20;99.90;;;;;;5091742;28;20491;-75
2022/03/05 01:29:53;;;;;;;34.07;16.60;;;0.10;99.90;;;;;;5095247;27;20033;-75
2022/03/05 01:32:20;;;;;;;30.27;14.30;;;0.10;99.90;;;;;;5075559;28;20490;-74
2022/03/05 01:34:46;;;;;;;32.70;15.23;;;0.10;99.90;;;;;;5092933;28;20027;-73
2022/03/05 01:37:13;;;;;;;35.20;17.00;;;0.10;99.90;;;;;;5074404;28;20039;-74
2022/03/05 01:39:41;;;;;;;28.40;14.63;;;0.10;99.90;;;;;;5077330;28;20032;-74
2022/03/05 01:42:08;;;;;;;32.40;15.80;;;0.10;99.90;;;;;;5078680;28;20027;-74
2022/03/05 01:44:35;;;;;;;26.27;13.00;;;0.00;99.90;;;;;;5074586;28;20051;-74
2022/03/05 01:47:03;;;;;;;28.80;14.43;;;0.00;99.90;;;;;;5081064;28;20032;-74
2022/03/05 01:49:30;;;;;;;28.53;12.83;;;0.00;99.90;;;;;;5077141;28;20027;-74
2022/03/05 01:51:57;;;;;;;29.37;14.03;;;0.00;99.90;;;;;;5074550;28;20025;-74
2022/03/05 01:54:25;;;;;;;36.13;16.73;;;-0.10;99.90;;;;;;5055006;28;20676;-74
2022/03/05 01:56:51;;;;;;;38.63;17.07;;;-0.10;99.90;;;;;;5077277;28;20522;-74
2022/03/05 01:59:18;;;;;;;33.67;16.07;;;-0.10;99.90;;;;;;5074469;28;20506;-74
2022/03/05 02:01:44;;;;;;;29.73;13.47;;;-0.10;99.90;;;;;;5060033;28;20391;-75
2022/03/05 02:04:11;;;;;;;35.87;16.00;;;-0.10;99.90;;;;;;5076678;28;20023;-75
2022/03/05 02:06:37;;;;;;;33.00;16.03;;;-0.10;99.90;;;;;;5059774;28;20028;-75
2022/03/05 02:09:04;;;;;;;38.43;17.87;;;-0.10;99.90;;;;;;5073279;28;20047;-75
2022/03/05 02:11:30;;;;;;;29.83;14.13;;;-0.20;99.90;;;;;;5074700;28;20020;-75
2022/03/05 02:13:57;;;;;;;39.33;17.10;;;-0.20;99.90;;;;;;5073835;28;20037;-75
2022/03/05 02:16:24;;;;;;;31.87;15.27;;;-0.20;99.90;;;;;;5051972;28;20020;-75
2022/03/05 02:18:52;;;;;;;39.63;17.80;;;-0.20;99.90;;;;;;5075643;28;20578;-75
2022/03/05 02:21:22;;;;;;;35.07;15.93;;;-0.20;99.90;;;;;;5091820;28;20020;-75
2022/03/05 02:23:49;;;;;;;38.63;16.40;;;-0.30;99.90;;;;;;5055538;28;20023;-75
2022/03/05 02:26:16;;;;;;;36.40;16.40;;;-0.30;99.90;;;;;;5073730;28;20031;-74
2022/03/05 02:28:42;;;;;;;35.93;17.00;;;-0.30;99.90;;;;;;5072326;28;20023;-74
2022/03/05 02:31:09;;;;;;;40.43;19.07;;;-0.30;99.90;;;;;;5059292;28;20021;-75
2022/03/05 02:33:35;;;;;;;38.63;18.73;;;-0.30;99.90;;;;;;5059328;28;20482;-75
2022/03/05 02:36:04;;;;;;;38.83;17.60;;;-0.30;99.90;;;;;;5082962;28;20039;-75
2022/03/05 02:38:31;;;;;;;40.20;18.20;;;-0.40;99.90;;;;;;5084750;28;20025;-75
2022/03/05 02:40:57;;;;;;;34.43;15.73;;;-0.40;99.90;;;;;;5089128;28;20036;-74
2022/03/05 02:43:26;;;;;;;44.27;19.93;;;-0.40;99.90;;;;;;5087975;28;20098;-75
2022/03/05 02:45:53;;;;;;;36.07;17.20;;;-0.40;99.90;;;;;;5093446;27;20051;-74
2022/03/05 02:48:20;;;;;;;35.13;15.67;;;-0.40;99.90;;;;;;5096276;27;20039;-74
2022/03/05 02:50:49;;;;;;;40.83;17.90;;;-0.50;99.90;;;;;;5105266;27;20032;-74
2022/03/05 02:53:16;;;;;;;44.90;19.63;;;-0.50;99.90;;;;;;5094097;27;20023;-74
2022/03/05 02:55:43;;;;;;;42.87;20.40;;;-0.50;99.90;;;;;;5091442;28;20023;-74
2022/03/05 02:58:10;;;;;;;45.57;19.87;;;-0.50;99.90;;;;;;5068234;27;20023;-74
2022/03/05 03:00:37;;;;;;;46.30;19.73;;;-0.50;99.90;;;;;;5065423;28;20024;-74
2022/03/05 03:03:03;;;;;;;44.87;19.40;;;-0.50;99.90;;;;;;5085276;28;20035;-74
2022/03/05 03:05:30;;;;;;;40.87;18.20;;;-0.50;99.90;;;;;;5052633;27;20039;-75
2022/03/05 03:07:56;;;;;;;47.43;20.03;;;-0.50;99.90;;;;;;5098750;27;20054;-74
2022/03/05 03:10:23;;;;;;;41.40;18.90;;;-0.50;99.90;;;;;;5062101;28;20021;-74
2022/03/05 03:12:49;;;;;;;44.60;20.73;;;-0.50;99.90;;;;;;5096535;27;20012;-74
2022/03/05 03:15:16;;;;;;;45.03;20.40;;;-0.50;99.90;;;;;;5081191;28;20023;-75
2022/03/05 03:17:45;;;;;;;44.53;19.50;;;-0.60;99.90;;;;;;5100086;27;20475;-75
2022/03/05 03:20:14;;;;;;;50.50;23.97;;;-0.60;99.90;;;;;;5101566;27;20031;-74
2022/03/05 03:22:41;;;;;;;50.13;21.97;;;-0.60;99.90;;;;;;5081002;28;20032;-74
2022/03/05 03:25:08;;;;;;;45.53;20.13;;;-0.60;99.90;;;;;;5098918;27;20036;-74
2022/03/05 03:27:36;;;;;;;42.77;18.97;;;-0.60;99.90;;;;;;5099229;27;20007;-75
2022/03/05 03:30:05;;;;;;;49.53;21.93;;;-0.60;99.90;;;;;;5071676;27;20039;-75
2022/03/05 03:32:32;;;;;;;47.70;21.27;;;-0.60;99.90;;;;;;5080259;27;20024;-74
2022/03/05 03:34:58;;;;;;;43.53;19.97;;;-0.60;99.90;;;;;;5096260;27;20493;-75
2022/03/05 03:37:29;;;;;;;49.87;21.23;;;-0.60;99.90;;;;;;5095142;27;20038;-75
2022/03/05 03:40:00;;;;;;;53.07;22.37;;;-0.60;99.90;;;;;;5099344;27;20016;-75
2022/03/05 03:42:27;;;;;;;54.13;23.57;;;-0.60;99.90;;;;;;5064574;27;20046;-75
2022/03/05 03:44:54;;;;;;;50.33;21.53;;;-0.70;99.90;;;;;;5064635;28;20039;-74
2022/03/05 03:47:22;;;;;;;48.27;20.63;;;-0.70;99.90;;;;;;5081671;27;20578;-74
2022/03/05 03:49:48;;;;;;;48.80;20.60;;;-0.70;99.90;;;;;;5099464;27;20024;-75
2022/03/05 03:52:15;;;;;;;52.40;22.97;;;-0.70;99.90;;;;;;5064508;28;20031;-74
2022/03/05 03:54:44;;;;;;;49.73;21.23;;;-0.70;99.90;;;;;;5099120;27;20027;-75
2022/03/05 03:57:10;;;;;;;51.27;22.93;;;-0.70;99.90;;;;;;5067287;28;20012;-75
2022/03/05 03:59:37;;;;;;;50.83;22.57;;;-0.70;99.90;;;;;;5096232;27;20031;-74
2022/03/05 04:02:04;;;;;;;51.50;22.60;;;-0.70;99.90;;;;;;5081132;28;20459;-74
2022/03/05 04:04:31;;;;;;;54.40;24.00;;;-0.70;99.90;;;;;;5047183;27;20023;-74
2022/03/05 04:09:43;;;;;;;50.47;21.07;;;-0.80;99.90;;;;;;5076792;28;20026;-74
2022/03/05 04:12:09;;;;;;;45.20;20.27;;;-0.80;99.90;;;;;;5094266;27;20016;-74
2022/03/05 04:14:38;;;;;;;42.37;18.93;;;-0.80;99.90;;;;;;5096601;27;20375;-74
2022/03/05 04:17:06;;;;;;;46.83;20.13;;;-0.80;99.90;;;;;;5066392;28;20030;-75
2022/03/05 04:19:32;;;;;;;51.93;21.20;;;-0.80;99.90;;;;;;5095783;27;20012;-75
2022/03/05 04:21:59;;;;;;;52.77;21.27;;;-0.80;99.90;;;;;;5079914;28;20454;-75
2022/03/05 04:24:26;;;;;;;57.60;22.13;;;-0.80;99.90;;;;;;5077537;28;20024;-74
2022/03/05 04:26:52;;;;;;;51.80;22.40;;;-0.80;99.90;;;;;;5093340;27;20036;-74
2022/03/05 04:29:18;;;;;;;53.73;22.37;;;-0.80;99.90;;;;;;5077529;28;20030;-74
2022/03/05 04:31:45;;;;;;;49.57;20.10;;;-0.80;99.90;;;;;;5082720;27;20019;-73
2022/03/05 04:34:11;;;;;;;45.37;19.33;;;-0.80;99.90;;;;;;5076696;28;20032;-73
2022/03/05 04:36:38;;;;;;;51.40;20.77;;;-0.80;99.90;;;;;;5078383;28;20027;-75
2022/03/05 04:39:04;;;;;;;41.17;18.20;;;-0.80;99.90;;;;;;5093421;27;20037;-74
2022/03/05 04:41:31;;;;;;;55.27;22.23;;;-0.80;99.90;;;;;;5042805;28;20020;-74
2022/03/05 04:43:57;;;;;;;46.70;18.70;;;-0.80;99.90;;;;;;5096751;27;20038;-74
2022/03/05 04:46:24;;;;;;;48.90;21.10;;;-0.80;99.90;;;;;;5097793;27;20032;-75
2022/03/05 04:48:50;;;;;;;40.70;16.93;;;-0.80;99.90;;;;;;5080167;28;20050;-73
2022/03/05 04:51:17;;;;;;;42.77;17.73;;;-0.80;99.90;;;;;;5082038;27;20035;-75
2022/03/05 04:53:43;;;;;;;47.00;20.43;;;-0.80;99.90;;;;;;5062244;28;20467;-74
2022/03/05 04:56:10;;;;;;;43.13;18.87;;;-0.80;99.90;;;;;;5099116;28;20015;-74
2022/03/05 04:58:36;;;;;;;42.97;17.10;;;-0.80;99.90;;;;;;5075216;28;20023;-74
2022/03/05 05:01:03;;;;;;;43.87;17.73;;;-0.90;99.90;;;;;;5097154;27;20024;-74
2022/03/05 05:03:29;;;;;;;39.23;16.53;;;-0.90;99.90;;;;;;5044824;28;20059;-74
2022/03/05 05:05:56;;;;;;;49.50;19.87;;;-0.90;99.90;;;;;;5076061;28;20499;-74
2022/03/05 05:08:23;;;;;;;45.03;20.10;;;-0.90;99.90;;;;;;5043331;28;20027;-74
2022/03/05 05:10:49;;;;;;;44.10;19.20;;;-0.90;99.90;;;;;;5096871;27;20043;-74
2022/03/05 05:13:16;;;;;;;51.23;19.43;;;-0.80;99.90;;;;;;5093419;27;20019;-74
2022/03/05 05:15:45;;;;;;;48.93;20.63;;;-0.90;99.90;;;;;;5062653;28;20506;-74
2022/03/05 05:18:11;;;;;;;45.57;19.00;;;-0.90;99.90;;;;;;5095018;27;20012;-74
2022/03/05 05:20:38;;;;;;;47.73;19.97;;;-0.90;99.90;;;;;;5077839;28;20039;-74
2022/03/05 05:23:04;;;;;;;40.47;17.97;;;-0.90;99.90;;;;;;5043905;28;20043;-74
2022/03/05 05:25:31;;;;;;;44.73;19.27;;;-0.90;99.90;;;;;;5061118;27;21144;-74
2022/03/05 05:27:57;;;;;;;46.53;19.17;;;-0.90;99.90;;;;;;5093893;28;20031;-74
2022/03/05 05:30:24;;;;;;;46.17;19.90;;;-1.00;99.90;;;;;;5056207;28;20020;-74
2022/03/05 05:32:50;;;;;;;50.80;20.53;;;-0.90;99.90;;;;;;5059706;28;20885;-75
2022/03/05 05:35:17;;;;;;;46.00;18.43;;;-1.00;99.90;;;;;;5082349;28;20040;-74
2022/03/05 05:37:43;;;;;;;44.10;19.30;;;-1.00;99.90;;;;;;5096903;27;20036;-74
2022/03/05 05:40:10;;;;;;;45.23;18.77;;;-1.00;99.90;;;;;;5079844;28;20093;-75
2022/03/05 05:42:36;;;;;;;43.03;18.50;;;-1.00;99.90;;;;;;5079154;28;20031;-74
2022/03/05 05:45:04;;;;;;;57.23;22.73;;;-1.00;99.90;;;;;;5046522;28;20074;-74
2022/03/05 05:47:31;;;;;;;46.03;18.70;;;-1.10;99.90;;;;;;5038955;28;20031;-74
2022/03/05 05:49:57;;;;;;;41.90;18.07;;;-1.10;99.90;;;;;;5099080;28;20031;-74
2022/03/05 05:52:23;;;;;;;54.83;21.63;;;-1.10;99.90;;;;;;5082987;28;20035;-74
2022/03/05 05:54:50;;;;;;;46.17;19.97;;;-1.10;99.90;;;;;;5077068;28;20035;-74
2022/03/05 05:57:16;;;;;;;44.03;18.37;;;-1.10;99.90;;;;;;5097811;28;20017;-74
2022/03/05 05:59:43;;;;;;;39.23;17.50;;;-1.10;99.90;;;;;;5066872;28;20478;-74
2022/03/05 06:02:09;;;;;;;47.10;20.13;;;-1.10;99.90;;;;;;5099186;28;20746;-73
2022/03/05 06:04:36;;;;;;;44.20;17.37;;;-1.10;99.90;;;;;;5087771;28;20054;-74
2022/03/05 06:07:02;;;;;;;43.43;17.27;;;-1.10;99.90;;;;;;5079093;28;20032;-73
2022/03/05 06:09:29;;;;;;;45.67;18.40;;;-1.10;99.90;;;;;;5086333;28;20012;-73
2022/03/05 06:11:55;;;;;;;43.13;19.00;;;-1.10;99.90;;;;;;5082680;28;20031;-74
2022/03/05 06:14:22;;;;;;;52.33;22.43;;;-1.10;99.90;;;;;;5080233;27;20035;-73
2022/03/05 06:16:49;;;;;;;47.73;20.00;;;-1.10;99.90;;;;;;5070998;27;20030;-73
2022/03/05 06:19:15;;;;;;;53.53;21.70;;;-1.20;99.90;;;;;;5102567;27;20020;-74
2022/03/05 06:21:42;;;;;;;43.80;18.27;;;-1.20;99.90;;;;;;5083881;28;20051;-73
2022/03/05 06:24:08;;;;;;;49.57;20.63;;;-1.20;99.90;;;;;;5080474;28;20035;-74
2022/03/05 06:26:35;;;;;;;44.43;17.47;;;-1.20;99.90;;;;;;5050990;28;20047;-74
2022/03/05 06:29:03;;;;;;;45.83;18.83;;;-1.20;99.90;;;;;;5051527;27;20043;-76
2022/03/05 06:31:30;;;;;;;42.57;18.87;;;-1.20;99.90;;;;;;5101279;27;20028;-76
2022/03/05 06:33:56;;;;;;;40.00;15.43;;;-1.10;99.90;;;;;;5062449;27;20016;-76
2022/03/05 06:36:23;;;;;;;41.97;17.93;;;-1.10;99.90;;;;;;5099769;27;20024;-76
2022/03/05 06:38:49;;;;;;;43.77;17.90;;;-1.10;99.90;;;;;;5097917;27;20040;-76
2022/03/05 06:41:16;;;;;;;48.53;20.23;;;-1.10;99.90;;;;;;5084535;27;20030;-76
2022/03/05 06:43:42;;;;;;;45.17;18.20;;;-1.00;99.90;;;;;;5080017;28;20111;-75
2022/03/05 06:46:08;;;;;;;43.87;19.30;;;-1.00;99.90;;;;;;5080383;28;20035;-76
2022/03/05 06:48:35;;;;;;;42.37;17.67;;;-0.90;99.90;;;;;;5082314;27;20019;-76
2022/03/05 06:51:01;;;;;;;54.23;21.50;;;-0.80;99.90;;;;;;5084616;28;20027;-76
2022/03/05 06:53:28;;;;;;;44.23;17.43;;;-0.80;99.90;;;;;;5059573;27;20206;-76
2022/03/05 06:55:54;;;;;;;40.20;16.80;;;-0.70;99.90;;;;;;5078188;28;20032;-75
2022/03/05 06:58:21;;;;;;;51.63;20.33;;;-0.70;99.90;;;;;;5081358;28;20492;-74
2022/03/05 07:00:47;;;;;;;51.37;20.70;;;-0.60;99.90;;;;;;5083806;27;20031;-74
2022/03/05 07:03:14;;;;;;;42.53;18.40;;;-0.50;99.90;;;;;;5083266;28;20292;-74
2022/03/05 07:05:40;;;;;;;42.77;18.17;;;-0.40;99.90;;;;;;5084460;27;20039;-74
2022/03/05 07:08:07;;;;;;;46.63;19.83;;;-0.40;99.90;;;;;;5082812;27;20383;-75
2022/03/05 07:10:33;;;;;;;43.90;19.67;;;-0.30;99.90;;;;;;5070144;27;20023;-74
2022/03/05 07:13:00;;;;;;;44.83;18.23;;;-0.20;99.90;;;;;;5080449;27;20019;-74
2022/03/05 07:15:27;;;;;;;48.30;20.43;;;-0.10;99.90;;;;;;5102240;27;20024;-74
2022/03/05 07:17:53;;;;;;;47.40;20.63;;;0.00;99.90;;;;;;5098579;27;20020;-74
2022/03/05 07:20:20;;;;;;;48.87;20.70;;;0.10;99.90;;;;;;5060893;27;20028;-75
2022/03/05 07:22:47;;;;;;;41.57;18.53;;;0.20;99.90;;;;;;5061892;27;20130;-75
2022/03/05 07:25:14;;;;;;;51.50;22.03;;;0.30;99.90;;;;;;5081326;27;20027;-74
2022/03/05 07:27:40;;;;;;;48.13;21.03;;;0.30;99.90;;;;;;5102264;27;20284;-75
2022/03/05 07:30:08;;;;;;;53.87;22.37;;;0.40;99.90;;;;;;5081122;27;20371;-75
2022/03/05 07:32:35;;;;;;;47.63;19.70;;;0.50;99.90;;;;;;5083805;27;20022;-74
2022/03/05 07:35:04;;;;;;;45.30;19.77;;;0.60;99.90;;;;;;5082298;27;20452;-73
2022/03/05 07:37:31;;;;;;;41.97;20.23;;;0.70;99.90;;;;;;5080193;27;20462;-73
2022/03/05 07:39:57;;;;;;;43.47;19.13;;;0.80;99.90;;;;;;5065136;27;20382;-73
2022/03/05 07:42:24;;;;;;;47.47;21.33;;;0.90;99.90;;;;;;5098181;27;20035;-73
2022/03/05 07:44:50;;;;;;;44.67;19.90;;;1.00;99.90;;;;;;5061196;27;20402;-73
2022/03/05 07:47:17;;;;;;;47.50;20.03;;;1.00;99.90;;;;;;5096550;27;20722;-74
2022/03/05 07:49:43;;;;;;;45.20;20.20;;;1.20;99.90;;;;;;5098292;27;20023;-74
2022/03/05 07:52:09;;;;;;;42.17;19.33;;;1.20;99.90;;;;;;5086322;27;20028;-74
2022/03/05 07:54:36;;;;;;;42.50;19.57;;;1.30;99.90;;;;;;5099503;27;20020;-74
2022/03/05 07:57:03;;;;;;;40.13;18.23;;;1.50;99.90;;;;;;5098904;27;20368;-75
2022/03/05 07:59:29;;;;;;;40.43;18.10;;;1.60;99.90;;;;;;5099689;27;20042;-75
2022/03/05 08:01:56;;;;;;;53.73;22.93;;;1.70;99.90;;;;;;5081359;28;20042;-74
2022/03/05 08:04:22;;;;;;;43.33;21.00;;;1.80;99.90;;;;;;5080409;28;20031;-74
2022/03/05 08:06:48;;;;;;;51.10;22.80;;;1.90;99.90;;;;;;5062840;28;20041;-74
2022/03/05 08:09:15;;;;;;;51.57;22.23;;;2.00;99.90;;;;;;5076171;28;20032;-74
2022/03/05 08:11:41;;;;;;;44.53;20.43;;;2.00;99.90;;;;;;5083514;28;20317;-74
2022/03/05 08:14:08;;;;;;;44.70;20.73;;;2.10;99.90;;;;;;5098954;27;20027;-75
2022/03/05 08:16:34;;;;;;;50.27;21.97;;;2.20;99.90;;;;;;5080614;27;20031;-75
2022/03/05 08:19:01;;;;;;;48.77;21.97;;;2.30;99.90;;;;;;5080246;27;20386;-74
2022/03/05 08:21:28;;;;;;;47.43;21.77;;;2.30;99.90;;;;;;5084432;27;20046;-74
2022/03/05 08:23:55;;;;;;;43.13;20.77;;;2.30;99.90;;;;;;5077175;27;20471;-74
2022/03/05 08:26:22;;;;;;;44.70;18.97;;;2.40;99.90;;;;;;5044867;27;20062;-75
2022/03/05 08:28:48;;;;;;;43.87;20.33;;;2.50;99.90;;;;;;5078065;27;21373;-74
2022/03/05 08:31:15;;;;;;;40.07;19.03;;;2.60;99.90;;;;;;5099072;27;20386;-74
2022/03/05 08:33:42;;;;;;;39.40;18.77;;;2.80;99.90;;;;;;5080357;27;20028;-74
2022/03/05 08:36:08;;;;;;;45.60;22.10;;;2.90;99.90;;;;;;5080175;27;20297;-74
2022/03/05 08:38:36;;;;;;;49.60;22.97;;;3.00;99.90;;;;;;5099827;27;20024;-74
2022/03/05 08:41:03;;;;;;;45.13;21.63;;;3.00;99.90;;;;;;5085827;27;20509;-74
2022/03/05 08:43:30;;;;;;;42.43;20.23;;;3.10;99.90;;;;;;5066210;27;20481;-74
2022/03/05 08:45:56;;;;;;;41.23;18.73;;;3.20;99.90;;;;;;5080033;27;20485;-74
2022/03/05 08:48:23;;;;;;;44.90;19.60;;;3.30;99.90;;;;;;5030602;27;20383;-74
2022/03/05 08:50:49;;;;;;;51.63;24.23;;;3.40;99.90;;;;;;5096305;27;21001;-74
2022/03/05 08:53:16;;;;;;;46.10;22.07;;;3.40;99.90;;;;;;5062784;28;20027;-74
2022/03/05 08:55:42;;;;;;;44.60;21.23;;;3.50;99.90;;;;;;5100766;27;20016;-73
2022/03/05 08:58:08;;;;;;;46.23;22.23;;;3.50;99.90;;;;;;5096870;27;20497;-74
2022/03/05 09:00:35;;;;;;;43.60;21.20;;;3.60;99.90;;;;;;5082698;27;20593;-74
2022/03/05 09:03:02;;;;;;;43.57;20.97;;;3.70;99.90;;;;;;5075997;28;20024;-74
2022/03/05 09:05:28;;;;;;;43.87;21.07;;;3.80;99.90;;;;;;5080518;27;20044;-74
2022/03/05 09:07:55;;;;;;;46.80;21.50;;;3.90;99.90;;;;;;5078079;27;20481;-74
2022/03/05 09:10:21;;;;;;;39.83;19.93;;;4.00;99.90;;;;;;5047061;27;20035;-74
2022/03/05 09:12:48;;;;;;;42.37;20.57;;;4.10;99.90;;;;;;5080358;27;20039;-74
2022/03/05 09:15:15;;;;;;;45.87;23.03;;;4.20;99.90;;;;;;5050099;27;20027;-74
2022/03/05 09:17:42;;;;;;;43.47;21.00;;;4.30;99.90;;;;;;5044087;27;20036;-75
2022/03/05 09:20:09;;;;;;;43.17;21.67;;;4.40;99.90;;;;;;5080239;27;20036;-74
2022/03/05 09:22:36;;;;;;;47.17;24.43;;;4.40;99.90;;;;;;5063001;27;20016;-74
2022/03/05 09:25:04;;;;;;;42.80;20.67;;;4.50;99.90;;;;;;5079050;28;20024;-74
2022/03/05 09:27:30;;;;;;;49.87;24.40;;;4.50;99.90;;;;;;5097074;27;20032;-75
2022/03/05 09:29:58;;;;;;;46.33;22.03;;;4.50;99.90;;;;;;5049937;28;20389;-74
2022/03/05 09:32:25;;;;;;;43.93;22.00;;;4.60;99.90;;;;;;5080849;28;20031;-74
2022/03/05 09:34:52;;;;;;;55.80;25.90;;;4.70;99.90;;;;;;5080339;28;20090;-73
2022/03/05 09:37:18;;;;;;;47.63;23.67;;;4.70;99.90;;;;;;5078045;28;20035;-73
2022/03/05 09:39:46;;;;;;;48.87;22.43;;;4.80;99.90;;;;;;5078871;28;20039;-73
2022/03/05 09:42:14;;;;;;;48.70;24.00;;;4.80;99.90;;;;;;5098293;27;20070;-73
2022/03/05 09:44:40;;;;;;;48.80;22.97;;;4.80;99.90;;;;;;5077207;28;20383;-73
2022/03/05 09:47:09;;;;;;;53.30;25.90;;;4.80;99.90;;;;;;5078726;28;20396;-73
2022/03/05 09:49:38;;;;;;;47.27;22.67;;;4.80;99.90;;;;;;5077153;28;20029;-72
2022/03/05 09:52:06;;;;;;;46.20;23.43;;;4.90;99.90;;;;;;5098373;28;20664;-73
2022/03/05 09:54:33;;;;;;;45.33;23.20;;;5.00;99.90;;;;;;5080727;28;20028;-74
2022/03/05 09:56:59;;;;;;;46.20;23.93;;;5.10;99.90;;;;;;5083271;28;20027;-73
2022/03/05 09:59:26;;;;;;;48.37;23.40;;;5.20;99.90;;;;;;5080950;28;20495;-74
2022/03/05 10:01:53;;;;;;;45.00;23.00;;;5.30;99.90;;;;;;5075270;28;20016;-74
2022/03/05 10:04:22;;;;;;;47.27;24.03;;;5.40;99.90;;;;;;5094161;28;20020;-73
2022/03/05 10:07:09;;;;;;;46.77;22.60;;;5.50;99.90;;;;;;5079106;28;20023;-74
2022/03/05 10:09:42;;;;;;;46.73;23.73;;;5.50;99.90;;;;;;5079648;28;20043;-74
2022/03/05 10:12:32;;;;;;;46.70;23.87;;;5.50;99.90;;;;;;5099244;28;20030;-75
2022/03/05 10:15:12;;;;;;;44.33;21.87;;;5.60;99.90;;;;;;5047267;28;20027;-74
2022/03/05 10:18:07;;;;;;;46.60;24.27;;;5.70;99.90;;;;;;5061241;28;20039;-74
2022/03/05 10:20:42;;;;;;;43.40;22.73;;;5.90;99.90;;;;;;5065176;28;20035;-74
2022/03/05 10:23:09;;;;;;;45.90;23.60;;;6.10;99.90;;;;;;5094198;28;20020;-74
2022/03/05 10:25:42;;;;;;;40.67;21.88;;;6.40;99.90;;;;;;5063087;28;20024;-74
2022/03/05 10:28:11;;;;;;;39.63;21.00;;;6.70;99.90;;;;;;5076010;28;20047;-74
2022/03/05 10:30:46;;;;;;;40.83;22.45;;;7.00;99.90;;;;;;5076490;28;20028;-74
2022/03/05 10:33:33;;;;;;;43.08;23.48;;;7.20;99.90;;;;;;5075196;28;20589;-74
2022/03/05 10:36:06;;;;;;;39.88;22.23;;;7.60;99.90;;;;;;5096792;28;20024;-74
2022/03/05 10:38:51;;;;;;;40.35;22.95;;;7.80;99.90;;;;;;5077887;28;20023;-74
2022/03/05 10:41:35;;;;;;;46.20;24.92;;;8.00;99.90;;;;;;5090002;28;20032;-74
2022/03/05 10:44:18;;;;;;;51.83;24.38;;;8.30;99.90;;;;;;5074371;28;20020;-73
2022/03/05 10:46:59;;;;;;;42.60;23.42;;;8.50;99.10;;;;;;5094289;28;20040;-74
2022/03/05 10:49:36;;;;;;;41.45;24.08;;;8.70;98.20;;;;;;5095330;28;20042;-74
2022/03/05 10:52:05;;;;;;;39.70;22.65;;;8.80;97.20;;;;;;5079074;28;20023;-75
2022/03/05 10:54:40;;;;;;;39.42;22.05;;;9.00;96.10;;;;;;5077937;28;20023;-74
2022/03/05 10:57:06;;;;;;;35.05;20.02;;;9.10;96.10;;;;;;5074979;27;20027;-74
2022/03/05 10:59:53;;;;;;;39.42;23.08;;;9.40;96.10;;;;;;5077608;27;20038;-74
2022/03/05 11:02:23;;;;;;;37.72;23.15;;;9.80;94.50;;;;;;5098397;27;21511;-75
2022/03/05 11:04:50;;;;;;;36.78;22.30;;;9.90;93.10;;;;;;5062378;28;20572;-75
2022/03/05 11:07:18;;;;;;;40.15;23.05;;;10.10;92.70;;;;;;5078293;28;20412;-75
2022/03/05 11:09:45;;;;;;;37.83;23.30;;;10.30;92.10;;;;;;5095080;27;20036;-74
2022/03/05 11:12:24;;;;;;;39.03;24.17;;;10.50;91.30;;;;;;5095191;27;20016;-74
2022/03/05 11:14:52;;;;;;;40.40;22.05;;;10.80;90.40;;;;;;5027609;27;20039;-73
2022/03/05 11:17:19;;;;;;;35.72;23.20;;;10.90;90.00;;;;;;5058910;27;20020;-74
2022/03/05 11:19:46;;;;;;;38.00;22.83;;;11.20;89.90;;;;;;5062877;27;20863;-73
2022/03/05 11:22:15;;;;;;;36.83;22.95;;;11.50;88.30;;;;;;5082144;27;20024;-74
2022/03/05 11:24:43;;;;;;;35.42;22.13;;;11.60;85.00;;;;;;5097970;27;20015;-74
2022/03/05 11:27:14;;;;;;;36.70;23.05;;;11.70;84.50;;;;;;5080131;27;20027;-74
2022/03/05 11:30:04;;;;;;;37.15;22.40;;;11.90;82.60;;;;;;5096078;27;20023;-74
2022/03/05 11:32:34;;;;;;;32.35;21.15;;;12.00;81.80;;;;;;5098297;27;20393;-74
2022/03/05 11:35:16;;;;;;;38.15;24.20;;;12.10;81.80;;;;;;5077999;27;20097;-74
2022/03/05 11:37:44;;;;;;;35.05;21.08;;;12.40;79.30;;;;;;5057164;27;20044;-74
2022/03/05 11:40:34;;;;;;;36.63;23.65;;;12.40;78.10;;;;;;5059276;28;20034;-74
2022/03/05 11:43:20;;;;;;;33.50;21.52;;;12.40;76.80;;;;;;5077717;27;20030;-74
2022/03/05 11:45:59;;;;;;;34.75;22.60;;;12.30;77.60;;;;;;5083121;28;20058;-74
2022/03/05 11:48:31;;;;;;;35.60;22.90;;;12.40;77.10;;;;;;5047679;28;20036;-75
2022/03/05 11:51:12;;;;;;;34.55;22.10;;;12.40;75.10;;;;;;5096903;27;20482;-75
2022/03/05 11:53:41;;;;;;;37.65;21.10;;;12.40;75.10;;;;;;5097644;27;20035;-75
2022/03/05 11:56:25;;;;;;;34.10;21.77;;;12.60;74.90;;;;;;5078301;27;20028;-74
2022/03/05 11:58:52;;;;;;;31.30;19.98;;;12.50;74.90;;;;;;5076239;27;20035;-75
2022/03/05 12:01:36;;;;;;;35.05;21.88;;;12.40;75.30;;;;;;5079232;28;20529;-75
2022/03/05 12:04:22;;;;;;;36.20;24.08;;;12.00;74.70;;;;;;5102600;27;20019;-75
2022/03/05 12:06:52;;;;;;;33.30;21.85;;;11.90;74.70;;;;;;5082110;28;20328;-75
2022/03/05 12:09:37;;;;;;;34.13;21.88;;;12.20;74.90;;;;;;5096853;27;20850;-74
2022/03/05 12:12:15;;;;;;;34.58;22.58;;;12.60;73.70;;;;;;5095346;27;20024;-75
2022/03/05 12:15:01;;;;;;;30.20;20.65;;;13.00;72.60;;;;;;5065052;28;20032;-74
2022/03/05 12:17:39;;;;;;;31.40;20.55;;;13.50;72.80;;;;;;5080003;27;20039;-75
2022/03/05 12:20:08;;;;;;;38.47;24.20;;;14.00;70.90;;;;;;5097355;27;20024;-75
2022/03/05 12:22:35;;;;;;;36.97;22.55;;;14.40;68.60;;;;;;5080172;27;20020;-75
2022/03/05 12:25:02;;;;;;;32.15;21.73;;;14.40;67.00;;;;;;5076382;28;20031;-75
2022/03/05 12:27:30;;;;;;;36.10;22.08;;;14.50;66.80;;;;;;5060881;27;20035;-75
2022/03/05 12:29:58;;;;;;;35.80;22.80;;;14.80;66.90;;;;;;5077972;28;20129;-74
2022/03/05 12:32:30;;;;;;;32.90;22.33;;;15.10;65.90;;;;;;5078346;28;20697;-75
2022/03/05 12:35:06;;;;;;;;;;;15.20;64.10;;;;;;5078483;28;20054;-75
2022/03/05 12:37:34;;;;;;;30.73;22.10;;;15.20;64.10;;;;;;5079194;27;19930;-75
2022/03/05 12:40:03;;;;;;;34.78;22.80;;;15.30;64.10;;;;;;5080573;27;20474;-75
2022/03/05 12:42:38;;;;;;;33.05;20.02;;;15.60;62.80;;;;;;5100152;27;20013;-74
2022/03/05 12:45:05;;;;;;;35.17;22.88;;;15.90;62.30;;;;;;5078509;28;20051;-76